sensor_id;sensor_type;location;lat;lon;timestamp;temperature;humidity
10233;DHT22;5161;48.174;11.756;2023-06-14T00:00:52;19.00;43.10
10233;DHT22;5161;48.174;11.756;2023-06-14T00:03:18;18.90;43.00
10233;DHT22;5161;48.174;11.756;2023-06-14T00:05:48;18.90;43.00
10233;DHT22;5161;48.174;11.756;2023-06-14T00:08:14;18.90;43.10
10233;DHT22;5161;48.174;11.756;2023-06-14T00:10:40;18.80;43.10
10233;DHT22;5161;48.174;11.756;2023-06-14T00:13:09;18.80;43.20
10233;DHT22;5161;48.174;11.756;2023-06-14T00:15:35;18.90;43.00
10233;DHT22;5161;48.174;11.756;2023-06-14T00:18:01;18.80;42.90
10233;DHT22;5161;48.174;11.756;2023-06-14T00:20:28;18.80;43.00
10233;DHT22;5161;48.174;11.756;2023-06-14T00:22:54;18.80;43.00
10233;DHT22;5161;48.174;11.756;2023-06-14T00:25:22;18.80;43.00
10233;DHT22;5161;48.174;11.756;2023-06-14T00:27:49;18.70;43.40
10233;DHT22;5161;48.174;11.756;2023-06-14T00:30:17;18.70;43.50
10233;DHT22;5161;48.174;11.756;2023-06-14T00:32:43;18.60;42.90
10233;DHT22;5161;48.174;11.756;2023-06-14T00:35:09;18.60;43.00
10233;DHT22;5161;48.174;11.756;2023-06-14T00:37:35;18.50;43.00
10233;DHT22;5161;48.174;11.756;2023-06-14T00:40:02;18.50;43.00
10233;DHT22;5161;48.174;11.756;2023-06-14T00:42:29;18.50;43.00
10233;DHT22;5161;48.174;11.756;2023-06-14T00:44:55;18.50;43.50
10233;DHT22;5161;48.174;11.756;2023-06-14T00:47:21;18.50;43.20
10233;DHT22;5161;48.174;11.756;2023-06-14T00:49:47;18.40;43.20
10233;DHT22;5161;48.174;11.756;2023-06-14T00:52:14;18.40;43.20
10233;DHT22;5161;48.174;11.756;2023-06-14T00:54:41;18.40;43.30
10233;DHT22;5161;48.174;11.756;2023-06-14T00:57:12;18.30;43.40
10233;DHT22;5161;48.174;11.756;2023-06-14T00:59:51;18.40;43.40
10233;DHT22;5161;48.174;11.756;2023-06-14T01:02:16;18.40;43.30
10233;DHT22;5161;48.174;11.756;2023-06-14T01:04:47;18.30;43.30
10233;DHT22;5161;48.174;11.756;2023-06-14T01:07:25;18.30;43.60
10233;DHT22;5161;48.174;11.756;2023-06-14T01:12:46;18.30;43.90
10233;DHT22;5161;48.174;11.756;2023-06-14T01:15:14;18.20;43.80
10233;DHT22;5161;48.174;11.756;2023-06-14T01:17:41;18.20;43.60
10233;DHT22;5161;48.174;11.756;2023-06-14T01:20:11;18.20;43.70
10233;DHT22;5161;48.174;11.756;2023-06-14T01:22:54;18.10;43.80
10233;DHT22;5161;48.174;11.756;2023-06-14T01:25:20;18.10;43.80
10233;DHT22;5161;48.174;11.756;2023-06-14T01:30:18;18.10;44.20
10233;DHT22;5161;48.174;11.756;2023-06-14T01:32:45;18.10;44.00
10233;DHT22;5161;48.174;11.756;2023-06-14T01:35:11;18.10;44.10
10233;DHT22;5161;48.174;11.756;2023-06-14T01:37:37;18.00;43.90
10233;DHT22;5161;48.174;11.756;2023-06-14T01:40:06;18.00;44.00
10233;DHT22;5161;48.174;11.756;2023-06-14T01:42:36;18.00;44.20
10233;DHT22;5161;48.174;11.756;2023-06-14T01:45:02;18.00;44.20
10233;DHT22;5161;48.174;11.756;2023-06-14T01:47:29;17.90;44.30
10233;DHT22;5161;48.174;11.756;2023-06-14T01:49:55;17.90;44.30
10233;DHT22;5161;48.174;11.756;2023-06-14T01:52:21;17.90;44.40
10233;DHT22;5161;48.174;11.756;2023-06-14T01:54:47;17.90;44.40
10233;DHT22;5161;48.174;11.756;2023-06-14T01:57:15;17.90;44.40
10233;DHT22;5161;48.174;11.756;2023-06-14T01:59:40;17.90;44.50
10233;DHT22;5161;48.174;11.756;2023-06-14T02:02:06;17.90;44.50
10233;DHT22;5161;48.174;11.756;2023-06-14T02:04:32;17.80;44.40
10233;DHT22;5161;48.174;11.756;2023-06-14T02:06:57;17.90;44.60
10233;DHT22;5161;48.174;11.756;2023-06-14T02:09:23;17.80;44.70
10233;DHT22;5161;48.174;11.756;2023-06-14T02:11:49;17.80;44.70
10233;DHT22;5161;48.174;11.756;2023-06-14T02:14:14;17.80;44.90
10233;DHT22;5161;48.174;11.756;2023-06-14T02:16:42;17.80;45.00
10233;DHT22;5161;48.174;11.756;2023-06-14T02:19:15;17.80;45.10
10233;DHT22;5161;48.174;11.756;2023-06-14T02:21:41;17.70;45.20
10233;DHT22;5161;48.174;11.756;2023-06-14T02:24:06;17.60;45.40
10233;DHT22;5161;48.174;11.756;2023-06-14T02:26:32;17.50;45.50
10233;DHT22;5161;48.174;11.756;2023-06-14T02:28:58;17.50;45.60
10233;DHT22;5161;48.174;11.756;2023-06-14T02:31:23;17.50;45.90
10233;DHT22;5161;48.174;11.756;2023-06-14T02:33:49;17.40;45.90
10233;DHT22;5161;48.174;11.756;2023-06-14T02:36:15;17.40;46.00
10233;DHT22;5161;48.174;11.756;2023-06-14T02:38:41;17.40;46.20
10233;DHT22;5161;48.174;11.756;2023-06-14T02:41:06;17.30;46.10
10233;DHT22;5161;48.174;11.756;2023-06-14T02:43:32;17.30;46.20
10233;DHT22;5161;48.174;11.756;2023-06-14T02:45:57;17.20;46.20
10233;DHT22;5161;48.174;11.756;2023-06-14T02:48:23;17.30;46.30
10233;DHT22;5161;48.174;11.756;2023-06-14T02:50:49;17.30;46.20
10233;DHT22;5161;48.174;11.756;2023-06-14T02:53:15;17.20;46.30
10233;DHT22;5161;48.174;11.756;2023-06-14T02:55:41;17.20;46.30
10233;DHT22;5161;48.174;11.756;2023-06-14T02:58:07;17.20;46.30
10233;DHT22;5161;48.174;11.756;2023-06-14T03:00:32;17.20;46.30
10233;DHT22;5161;48.174;11.756;2023-06-14T03:02:58;17.20;46.30
10233;DHT22;5161;48.174;11.756;2023-06-14T03:05:27;17.20;46.80
10233;DHT22;5161;48.174;11.756;2023-06-14T03:07:53;17.20;46.50
10233;DHT22;5161;48.174;11.756;2023-06-14T03:10:19;17.10;46.50
10233;DHT22;5161;48.174;11.756;2023-06-14T03:12:45;17.00;46.60
10233;DHT22;5161;48.174;11.756;2023-06-14T03:15:10;17.00;46.80
10233;DHT22;5161;48.174;11.756;2023-06-14T03:17:38;17.00;46.90
10233;DHT22;5161;48.174;11.756;2023-06-14T03:20:04;16.90;47.00
10233;DHT22;5161;48.174;11.756;2023-06-14T03:22:31;16.90;47.10
10233;DHT22;5161;48.174;11.756;2023-06-14T03:24:59;16.90;47.20
10233;DHT22;5161;48.174;11.756;2023-06-14T03:27:25;16.80;47.10
10233;DHT22;5161;48.174;11.756;2023-06-14T03:29:53;16.80;47.10
10233;DHT22;5161;48.174;11.756;2023-06-14T03:32:19;16.70;47.20
10233;DHT22;5161;48.174;11.756;2023-06-14T03:34:44;16.70;47.20
10233;DHT22;5161;48.174;11.756;2023-06-14T03:37:10;16.60;47.20
10233;DHT22;5161;48.174;11.756;2023-06-14T03:39:36;16.70;47.40
10233;DHT22;5161;48.174;11.756;2023-06-14T03:42:02;16.60;47.30
10233;DHT22;5161;48.174;11.756;2023-06-14T03:44:27;16.60;47.40
10233;DHT22;5161;48.174;11.756;2023-06-14T03:46:53;16.50;47.40
10233;DHT22;5161;48.174;11.756;2023-06-14T03:49:18;16.60;47.40
10233;DHT22;5161;48.174;11.756;2023-06-14T03:51:44;16.60;47.50
10233;DHT22;5161;48.174;11.756;2023-06-14T03:54:10;16.60;47.60
10233;DHT22;5161;48.174;11.756;2023-06-14T03:56:35;16.60;47.60
10233;DHT22;5161;48.174;11.756;2023-06-14T03:59:01;16.70;47.70
10233;DHT22;5161;48.174;11.756;2023-06-14T04:01:27;16.70;47.70
10233;DHT22;5161;48.174;11.756;2023-06-14T04:03:56;16.70;47.80
10233;DHT22;5161;48.174;11.756;2023-06-14T04:06:22;16.70;47.80
10233;DHT22;5161;48.174;11.756;2023-06-14T04:08:51;16.70;48.00
10233;DHT22;5161;48.174;11.756;2023-06-14T04:11:17;16.60;48.00
10233;DHT22;5161;48.174;11.756;2023-06-14T04:13:43;16.60;48.10
10233;DHT22;5161;48.174;11.756;2023-06-14T04:16:09;16.60;48.20
10233;DHT22;5161;48.174;11.756;2023-06-14T04:18:34;16.60;48.30
10233;DHT22;5161;48.174;11.756;2023-06-14T04:21:00;16.60;48.40
10233;DHT22;5161;48.174;11.756;2023-06-14T04:23:26;16.60;48.60
10233;DHT22;5161;48.174;11.756;2023-06-14T04:25:53;16.60;48.60
10233;DHT22;5161;48.174;11.756;2023-06-14T04:28:19;16.60;48.60
10233;DHT22;5161;48.174;11.756;2023-06-14T04:30:45;16.60;48.50
10233;DHT22;5161;48.174;11.756;2023-06-14T04:33:12;16.60;48.60
10233;DHT22;5161;48.174;11.756;2023-06-14T04:35:39;16.60;48.80
10233;DHT22;5161;48.174;11.756;2023-06-14T04:38:06;16.70;48.90
10233;DHT22;5161;48.174;11.756;2023-06-14T04:40:35;16.70;49.10
10233;DHT22;5161;48.174;11.756;2023-06-14T04:43:08;16.70;49.00
10233;DHT22;5161;48.174;11.756;2023-06-14T04:45:34;16.70;48.90
10233;DHT22;5161;48.174;11.756;2023-06-14T04:47:59;16.80;48.90
10233;DHT22;5161;48.174;11.756;2023-06-14T04:50:25;16.80;48.80
10233;DHT22;5161;48.174;11.756;2023-06-14T04:52:52;16.80;48.70
10233;DHT22;5161;48.174;11.756;2023-06-14T04:55:18;16.80;48.60
10233;DHT22;5161;48.174;11.756;2023-06-14T04:57:45;16.80;48.70
10233;DHT22;5161;48.174;11.756;2023-06-14T05:00:11;16.80;48.80
10233;DHT22;5161;48.174;11.756;2023-06-14T05:02:37;16.80;48.70
10233;DHT22;5161;48.174;11.756;2023-06-14T05:05:03;16.80;48.50
10233;DHT22;5161;48.174;11.756;2023-06-14T05:07:34;16.80;48.50
10233;DHT22;5161;48.174;11.756;2023-06-14T05:09:59;16.90;48.60
10233;DHT22;5161;48.174;11.756;2023-06-14T05:12:25;16.90;48.50
10233;DHT22;5161;48.174;11.756;2023-06-14T05:14:51;16.90;48.60
10233;DHT22;5161;48.174;11.756;2023-06-14T05:17:16;17.00;48.60
10233;DHT22;5161;48.174;11.756;2023-06-14T05:19:42;17.00;47.50
10233;DHT22;5161;48.174;11.756;2023-06-14T05:22:08;17.10;49.00
10233;DHT22;5161;48.174;11.756;2023-06-14T05:24:34;17.20;48.90
10233;DHT22;5161;48.174;11.756;2023-06-14T05:27:00;17.30;49.10
10233;DHT22;5161;48.174;11.756;2023-06-14T05:29:26;17.40;49.20
10233;DHT22;5161;48.174;11.756;2023-06-14T05:31:52;17.50;49.00
10233;DHT22;5161;48.174;11.756;2023-06-14T05:34:18;17.60;49.00
10233;DHT22;5161;48.174;11.756;2023-06-14T05:36:44;17.70;49.00
10233;DHT22;5161;48.174;11.756;2023-06-14T05:39:10;17.70;48.90
10233;DHT22;5161;48.174;11.756;2023-06-14T05:41:38;17.80;48.50
10233;DHT22;5161;48.174;11.756;2023-06-14T05:44:04;17.80;48.60
10233;DHT22;5161;48.174;11.756;2023-06-14T05:46:30;17.70;49.00
10233;DHT22;5161;48.174;11.756;2023-06-14T05:48:55;17.70;48.70
10233;DHT22;5161;48.174;11.756;2023-06-14T05:51:22;17.70;48.60
10233;DHT22;5161;48.174;11.756;2023-06-14T05:53:50;17.70;48.50
10233;DHT22;5161;48.174;11.756;2023-06-14T05:56:16;17.80;48.60
10233;DHT22;5161;48.174;11.756;2023-06-14T05:58:43;17.80;48.80
10233;DHT22;5161;48.174;11.756;2023-06-14T06:01:09;17.90;49.00
10233;DHT22;5161;48.174;11.756;2023-06-14T06:03:35;17.80;48.60
10233;DHT22;5161;48.174;11.756;2023-06-14T06:06:01;17.80;48.70
10233;DHT22;5161;48.174;11.756;2023-06-14T06:08:27;17.80;48.70
10233;DHT22;5161;48.174;11.756;2023-06-14T06:10:52;17.90;48.80
10233;DHT22;5161;48.174;11.756;2023-06-14T06:13:19;17.90;48.80
10233;DHT22;5161;48.174;11.756;2023-06-14T06:15:44;17.90;48.90
10233;DHT22;5161;48.174;11.756;2023-06-14T06:18:10;18.00;48.70
10233;DHT22;5161;48.174;11.756;2023-06-14T06:20:36;18.00;48.70
10233;DHT22;5161;48.174;11.756;2023-06-14T06:23:02;18.10;48.90
10233;DHT22;5161;48.174;11.756;2023-06-14T06:25:28;18.10;48.80
10233;DHT22;5161;48.174;11.756;2023-06-14T06:27:54;18.10;48.90
10233;DHT22;5161;48.174;11.756;2023-06-14T06:30:21;18.10;48.80
10233;DHT22;5161;48.174;11.756;2023-06-14T06:32:47;18.20;48.70
10233;DHT22;5161;48.174;11.756;2023-06-14T06:35:13;18.20;49.00
10233;DHT22;5161;48.174;11.756;2023-06-14T06:37:39;18.30;49.10
10233;DHT22;5161;48.174;11.756;2023-06-14T06:40:05;18.30;49.00
10233;DHT22;5161;48.174;11.756;2023-06-14T06:42:31;18.40;49.10
10233;DHT22;5161;48.174;11.756;2023-06-14T06:44:57;18.40;48.90
10233;DHT22;5161;48.174;11.756;2023-06-14T06:47:23;18.40;49.00
10233;DHT22;5161;48.174;11.756;2023-06-14T06:49:48;18.40;48.90
10233;DHT22;5161;48.174;11.756;2023-06-14T06:52:14;18.30;49.00
10233;DHT22;5161;48.174;11.756;2023-06-14T06:54:40;18.30;49.10
10233;DHT22;5161;48.174;11.756;2023-06-14T06:57:06;18.40;49.20
10233;DHT22;5161;48.174;11.756;2023-06-14T06:59:33;18.40;49.50
10233;DHT22;5161;48.174;11.756;2023-06-14T07:01:59;18.50;49.60
10233;DHT22;5161;48.174;11.756;2023-06-14T07:04:24;18.60;49.70
10233;DHT22;5161;48.174;11.756;2023-06-14T07:06:50;18.70;49.60
10233;DHT22;5161;48.174;11.756;2023-06-14T07:09:16;18.70;49.80
10233;DHT22;5161;48.174;11.756;2023-06-14T07:11:42;18.80;49.90
10233;DHT22;5161;48.174;11.756;2023-06-14T07:14:08;18.80;50.00
10233;DHT22;5161;48.174;11.756;2023-06-14T07:16:34;18.90;50.00
10233;DHT22;5161;48.174;11.756;2023-06-14T07:19:01;18.90;49.90
10233;DHT22;5161;48.174;11.756;2023-06-14T07:21:27;18.90;50.00
10233;DHT22;5161;48.174;11.756;2023-06-14T07:23:53;18.90;49.60
10233;DHT22;5161;48.174;11.756;2023-06-14T07:26:19;18.90;49.90
10233;DHT22;5161;48.174;11.756;2023-06-14T07:28:45;18.90;49.60
10233;DHT22;5161;48.174;11.756;2023-06-14T07:31:11;18.90;49.70
10233;DHT22;5161;48.174;11.756;2023-06-14T07:33:38;19.00;50.00
10233;DHT22;5161;48.174;11.756;2023-06-14T07:36:03;19.00;50.10
10233;DHT22;5161;48.174;11.756;2023-06-14T07:38:29;19.10;49.90
10233;DHT22;5161;48.174;11.756;2023-06-14T07:40:54;19.20;50.00
10233;DHT22;5161;48.174;11.756;2023-06-14T07:43:20;19.20;49.60
10233;DHT22;5161;48.174;11.756;2023-06-14T07:45:46;19.30;49.90
10233;DHT22;5161;48.174;11.756;2023-06-14T07:48:11;19.30;49.30
10233;DHT22;5161;48.174;11.756;2023-06-14T07:50:37;19.30;49.60
10233;DHT22;5161;48.174;11.756;2023-06-14T07:53:02;19.40;49.40
10233;DHT22;5161;48.174;11.756;2023-06-14T07:55:28;19.30;49.40
10233;DHT22;5161;48.174;11.756;2023-06-14T07:57:54;19.40;49.10
10233;DHT22;5161;48.174;11.756;2023-06-14T08:00:20;19.40;49.30
10233;DHT22;5161;48.174;11.756;2023-06-14T08:02:46;19.50;49.40
10233;DHT22;5161;48.174;11.756;2023-06-14T08:05:12;19.50;49.50
10233;DHT22;5161;48.174;11.756;2023-06-14T08:07:38;19.50;49.40
10233;DHT22;5161;48.174;11.756;2023-06-14T08:10:05;19.60;49.60
10233;DHT22;5161;48.174;11.756;2023-06-14T08:12:32;19.60;49.30
10233;DHT22;5161;48.174;11.756;2023-06-14T08:14:57;19.70;49.30
10233;DHT22;5161;48.174;11.756;2023-06-14T08:17:23;19.70;48.40
10233;DHT22;5161;48.174;11.756;2023-06-14T08:19:49;19.70;49.00
10233;DHT22;5161;48.174;11.756;2023-06-14T08:22:15;19.80;48.70
10233;DHT22;5161;48.174;11.756;2023-06-14T08:24:40;19.80;48.50
10233;DHT22;5161;48.174;11.756;2023-06-14T08:27:06;19.80;49.00
10233;DHT22;5161;48.174;11.756;2023-06-14T08:29:32;19.90;48.40
10233;DHT22;5161;48.174;11.756;2023-06-14T08:31:58;19.90;48.60
10233;DHT22;5161;48.174;11.756;2023-06-14T08:34:23;19.90;47.10
10233;DHT22;5161;48.174;11.756;2023-06-14T08:36:52;19.90;47.70
10233;DHT22;5161;48.174;11.756;2023-06-14T08:39:18;19.90;48.00
10233;DHT22;5161;48.174;11.756;2023-06-14T08:41:47;19.90;47.70
10233;DHT22;5161;48.174;11.756;2023-06-14T08:44:16;20.00;47.90
10233;DHT22;5161;48.174;11.756;2023-06-14T08:46:42;20.00;48.40
10233;DHT22;5161;48.174;11.756;2023-06-14T08:49:08;20.10;48.30
10233;DHT22;5161;48.174;11.756;2023-06-14T08:51:36;20.10;46.70
10233;DHT22;5161;48.174;11.756;2023-06-14T08:54:03;20.10;48.20
10233;DHT22;5161;48.174;11.756;2023-06-14T08:56:30;20.10;47.40
10233;DHT22;5161;48.174;11.756;2023-06-14T08:58:57;20.20;47.80
10233;DHT22;5161;48.174;11.756;2023-06-14T09:01:26;20.20;47.70
10233;DHT22;5161;48.174;11.756;2023-06-14T09:03:52;20.30;47.90
10233;DHT22;5161;48.174;11.756;2023-06-14T09:06:21;20.30;47.50
10233;DHT22;5161;48.174;11.756;2023-06-14T09:08:48;20.40;47.70
10233;DHT22;5161;48.174;11.756;2023-06-14T09:11:15;20.50;47.40
10233;DHT22;5161;48.174;11.756;2023-06-14T09:13:42;20.40;47.10
10233;DHT22;5161;48.174;11.756;2023-06-14T09:16:08;20.40;47.50
10233;DHT22;5161;48.174;11.756;2023-06-14T09:18:38;20.50;47.40
10233;DHT22;5161;48.174;11.756;2023-06-14T09:21:08;20.50;47.30
10233;DHT22;5161;48.174;11.756;2023-06-14T09:23:39;20.60;47.60
10233;DHT22;5161;48.174;11.756;2023-06-14T09:26:12;20.60;47.00
10233;DHT22;5161;48.174;11.756;2023-06-14T09:28:46;20.60;47.50
10233;DHT22;5161;48.174;11.756;2023-06-14T09:31:13;20.70;47.10
10233;DHT22;5161;48.174;11.756;2023-06-14T09:33:42;20.70;47.00
10233;DHT22;5161;48.174;11.756;2023-06-14T09:36:18;20.70;47.30
10233;DHT22;5161;48.174;11.756;2023-06-14T09:38:57;20.80;47.00
10233;DHT22;5161;48.174;11.756;2023-06-14T09:41:33;20.80;46.90
10233;DHT22;5161;48.174;11.756;2023-06-14T09:44:00;20.90;47.00
10233;DHT22;5161;48.174;11.756;2023-06-14T09:46:28;20.90;46.60
10233;DHT22;5161;48.174;11.756;2023-06-14T09:48:55;21.00;47.40
10233;DHT22;5161;48.174;11.756;2023-06-14T09:51:22;21.00;45.30
10233;DHT22;5161;48.174;11.756;2023-06-14T09:53:49;21.00;46.10
10233;DHT22;5161;48.174;11.756;2023-06-14T09:56:28;21.00;45.90
10233;DHT22;5161;48.174;11.756;2023-06-14T09:58:56;21.10;46.40
10233;DHT22;5161;48.174;11.756;2023-06-14T10:01:27;21.10;46.90
10233;DHT22;5161;48.174;11.756;2023-06-14T10:04:15;21.10;47.30
10233;DHT22;5161;48.174;11.756;2023-06-14T10:06:43;21.20;47.20
10233;DHT22;5161;48.174;11.756;2023-06-14T10:09:11;21.20;47.20
10233;DHT22;5161;48.174;11.756;2023-06-14T10:11:37;21.20;46.90
10233;DHT22;5161;48.174;11.756;2023-06-14T10:14:10;21.30;46.30
10233;DHT22;5161;48.174;11.756;2023-06-14T10:16:42;21.30;46.80
10233;DHT22;5161;48.174;11.756;2023-06-14T10:19:25;21.30;47.30
10233;DHT22;5161;48.174;11.756;2023-06-14T10:22:08;21.40;46.80
10233;DHT22;5161;48.174;11.756;2023-06-14T10:24:44;21.40;46.80
10233;DHT22;5161;48.174;11.756;2023-06-14T10:27:14;21.50;47.50
10233;DHT22;5161;48.174;11.756;2023-06-14T10:32:21;21.40;46.60
10233;DHT22;5161;48.174;11.756;2023-06-14T10:34:57;21.40;46.30
10233;DHT22;5161;48.174;11.756;2023-06-14T10:37:23;21.40;46.80
10233;DHT22;5161;48.174;11.756;2023-06-14T10:39:50;21.40;46.90
10233;DHT22;5161;48.174;11.756;2023-06-14T10:42:16;21.50;46.80
10233;DHT22;5161;48.174;11.756;2023-06-14T10:44:45;21.50;47.00
10233;DHT22;5161;48.174;11.756;2023-06-14T10:47:26;21.50;46.50
10233;DHT22;5161;48.174;11.756;2023-06-14T10:50:03;21.50;46.20
10233;DHT22;5161;48.174;11.756;2023-06-14T10:52:29;21.60;46.70
10233;DHT22;5161;48.174;11.756;2023-06-14T10:55:01;21.60;46.50
10233;DHT22;5161;48.174;11.756;2023-06-14T10:57:29;21.70;44.80
10233;DHT22;5161;48.174;11.756;2023-06-14T10:59:57;21.70;46.40
10233;DHT22;5161;48.174;11.756;2023-06-14T11:05:08;21.70;45.90
10233;DHT22;5161;48.174;11.756;2023-06-14T11:10:36;21.80;46.60
10233;DHT22;5161;48.174;11.756;2023-06-14T11:13:08;21.80;46.30
10233;DHT22;5161;48.174;11.756;2023-06-14T11:15:36;21.80;45.90
10233;DHT22;5161;48.174;11.756;2023-06-14T11:18:04;21.80;45.30
10233;DHT22;5161;48.174;11.756;2023-06-14T11:20:32;21.90;45.50
10233;DHT22;5161;48.174;11.756;2023-06-14T11:22:58;21.90;45.40
10233;DHT22;5161;48.174;11.756;2023-06-14T11:25:25;22.00;45.00
10233;DHT22;5161;48.174;11.756;2023-06-14T11:27:52;21.90;45.00
10233;DHT22;5161;48.174;11.756;2023-06-14T11:30:18;22.00;44.60
10233;DHT22;5161;48.174;11.756;2023-06-14T11:32:47;22.00;45.10
10233;DHT22;5161;48.174;11.756;2023-06-14T11:35:13;22.10;45.40
10233;DHT22;5161;48.174;11.756;2023-06-14T11:37:39;22.10;44.90
10233;DHT22;5161;48.174;11.756;2023-06-14T11:40:07;22.20;45.60
10233;DHT22;5161;48.174;11.756;2023-06-14T11:42:37;22.20;45.80
10233;DHT22;5161;48.174;11.756;2023-06-14T11:45:03;22.30;46.20
10233;DHT22;5161;48.174;11.756;2023-06-14T11:47:35;22.40;43.70
10233;DHT22;5161;48.174;11.756;2023-06-14T11:50:05;22.40;43.70
10233;DHT22;5161;48.174;11.756;2023-06-14T11:52:31;22.30;44.70
10233;DHT22;5161;48.174;11.756;2023-06-14T11:54:57;22.20;43.00
10233;DHT22;5161;48.174;11.756;2023-06-14T11:57:24;22.20;43.60
10233;DHT22;5161;48.174;11.756;2023-06-14T11:59:50;22.20;43.90
10233;DHT22;5161;48.174;11.756;2023-06-14T12:02:16;22.30;42.60
10233;DHT22;5161;48.174;11.756;2023-06-14T12:04:49;22.30;43.50
10233;DHT22;5161;48.174;11.756;2023-06-14T12:07:16;22.40;44.70
10233;DHT22;5161;48.174;11.756;2023-06-14T12:12:28;22.40;42.30
10233;DHT22;5161;48.174;11.756;2023-06-14T12:14:57;22.40;43.90
10233;DHT22;5161;48.174;11.756;2023-06-14T12:17:23;22.50;42.80
10233;DHT22;5161;48.174;11.756;2023-06-14T12:19:49;22.60;43.60
10233;DHT22;5161;48.174;11.756;2023-06-14T12:22:16;22.60;43.90
10233;DHT22;5161;48.174;11.756;2023-06-14T12:24:46;22.60;44.00
10233;DHT22;5161;48.174;11.756;2023-06-14T12:27:12;22.70;44.10
10233;DHT22;5161;48.174;11.756;2023-06-14T12:29:44;22.70;44.10
10233;DHT22;5161;48.174;11.756;2023-06-14T12:32:10;22.80;43.80
10233;DHT22;5161;48.174;11.756;2023-06-14T12:34:35;22.80;43.70
10233;DHT22;5161;48.174;11.756;2023-06-14T12:37:01;22.80;43.90
10233;DHT22;5161;48.174;11.756;2023-06-14T12:39:29;22.90;43.20
10233;DHT22;5161;48.174;11.756;2023-06-14T12:41:57;22.90;42.90
10233;DHT22;5161;48.174;11.756;2023-06-14T12:44:22;22.90;42.90
10233;DHT22;5161;48.174;11.756;2023-06-14T12:46:48;23.00;43.10
10233;DHT22;5161;48.174;11.756;2023-06-14T12:49:16;23.00;42.80
10233;DHT22;5161;48.174;11.756;2023-06-14T12:51:42;23.10;41.90
10233;DHT22;5161;48.174;11.756;2023-06-14T12:54:08;23.10;42.60
10233;DHT22;5161;48.174;11.756;2023-06-14T12:56:34;23.10;42.50
10233;DHT22;5161;48.174;11.756;2023-06-14T12:59:00;23.20;42.80
10233;DHT22;5161;48.174;11.756;2023-06-14T13:01:26;23.20;42.50
10233;DHT22;5161;48.174;11.756;2023-06-14T13:03:51;23.20;42.40
10233;DHT22;5161;48.174;11.756;2023-06-14T13:06:21;23.20;42.20
10233;DHT22;5161;48.174;11.756;2023-06-14T13:08:48;23.20;41.10
10233;DHT22;5161;48.174;11.756;2023-06-14T13:11:13;23.20;41.10
10233;DHT22;5161;48.174;11.756;2023-06-14T13:13:39;23.30;41.60
10233;DHT22;5161;48.174;11.756;2023-06-14T13:16:04;23.30;41.40
10233;DHT22;5161;48.174;11.756;2023-06-14T13:18:30;23.40;42.50
10233;DHT22;5161;48.174;11.756;2023-06-14T13:20:56;23.40;42.80
10233;DHT22;5161;48.174;11.756;2023-06-14T13:23:28;23.40;42.40
10233;DHT22;5161;48.174;11.756;2023-06-14T13:25:54;23.50;42.10
10233;DHT22;5161;48.174;11.756;2023-06-14T13:28:20;23.50;42.20
10233;DHT22;5161;48.174;11.756;2023-06-14T13:30:46;23.50;42.30
10233;DHT22;5161;48.174;11.756;2023-06-14T13:33:12;23.60;41.90
10233;DHT22;5161;48.174;11.756;2023-06-14T13:35:38;23.60;41.80
10233;DHT22;5161;48.174;11.756;2023-06-14T13:38:03;23.60;42.10
10233;DHT22;5161;48.174;11.756;2023-06-14T13:40:29;23.60;41.80
10233;DHT22;5161;48.174;11.756;2023-06-14T13:42:55;23.70;41.80
10233;DHT22;5161;48.174;11.756;2023-06-14T13:45:20;23.70;41.90
10233;DHT22;5161;48.174;11.756;2023-06-14T13:47:46;23.80;41.20
10233;DHT22;5161;48.174;11.756;2023-06-14T13:50:13;23.90;41.80
10233;DHT22;5161;48.174;11.756;2023-06-14T13:52:39;23.90;41.90
10233;DHT22;5161;48.174;11.756;2023-06-14T13:55:05;24.00;42.20
10233;DHT22;5161;48.174;11.756;2023-06-14T13:57:31;24.00;42.00
10233;DHT22;5161;48.174;11.756;2023-06-14T13:59:57;24.10;42.30
10233;DHT22;5161;48.174;11.756;2023-06-14T14:02:27;24.10;42.10
10233;DHT22;5161;48.174;11.756;2023-06-14T14:04:54;24.10;41.30
10233;DHT22;5161;48.174;11.756;2023-06-14T14:07:20;24.10;42.10
10233;DHT22;5161;48.174;11.756;2023-06-14T14:09:47;24.20;42.40
10233;DHT22;5161;48.174;11.756;2023-06-14T14:12:13;24.20;42.30
10233;DHT22;5161;48.174;11.756;2023-06-14T14:14:39;24.30;42.40
10233;DHT22;5161;48.174;11.756;2023-06-14T14:17:05;24.30;41.00
10233;DHT22;5161;48.174;11.756;2023-06-14T14:19:32;24.30;41.50
10233;DHT22;5161;48.174;11.756;2023-06-14T14:21:57;24.30;42.00
10233;DHT22;5161;48.174;11.756;2023-06-14T14:24:23;24.30;41.70
10233;DHT22;5161;48.174;11.756;2023-06-14T14:26:49;24.10;41.30
10233;DHT22;5161;48.174;11.756;2023-06-14T14:29:15;24.10;41.30
10233;DHT22;5161;48.174;11.756;2023-06-14T14:31:42;24.10;42.00
10233;DHT22;5161;48.174;11.756;2023-06-14T14:34:07;24.20;41.50
10233;DHT22;5161;48.174;11.756;2023-06-14T14:36:33;24.30;41.60
10233;DHT22;5161;48.174;11.756;2023-06-14T14:39:01;24.40;41.90
10233;DHT22;5161;48.174;11.756;2023-06-14T14:41:27;24.40;41.70
10233;DHT22;5161;48.174;11.756;2023-06-14T14:43:53;24.50;41.80
10233;DHT22;5161;48.174;11.756;2023-06-14T14:46:18;24.50;41.50
10233;DHT22;5161;48.174;11.756;2023-06-14T14:48:44;24.50;41.70
10233;DHT22;5161;48.174;11.756;2023-06-14T14:51:09;24.60;41.10
10233;DHT22;5161;48.174;11.756;2023-06-14T14:53:35;24.60;41.40
10233;DHT22;5161;48.174;11.756;2023-06-14T14:56:01;24.60;41.10
10233;DHT22;5161;48.174;11.756;2023-06-14T14:58:26;24.70;41.20
10233;DHT22;5161;48.174;11.756;2023-06-14T15:00:52;24.70;40.90
10233;DHT22;5161;48.174;11.756;2023-06-14T15:03:18;24.80;40.80
10233;DHT22;5161;48.174;11.756;2023-06-14T15:05:43;24.80;40.50
10233;DHT22;5161;48.174;11.756;2023-06-14T15:08:09;24.80;41.00
10233;DHT22;5161;48.174;11.756;2023-06-14T15:10:42;24.80;40.60
10233;DHT22;5161;48.174;11.756;2023-06-14T15:13:08;24.70;40.80
10233;DHT22;5161;48.174;11.756;2023-06-14T15:15:35;24.70;40.60
10233;DHT22;5161;48.174;11.756;2023-06-14T15:18:02;24.80;40.80
10233;DHT22;5161;48.174;11.756;2023-06-14T15:20:28;24.90;41.10
10233;DHT22;5161;48.174;11.756;2023-06-14T15:22:54;24.90;41.50
10233;DHT22;5161;48.174;11.756;2023-06-14T16:21:15;23.80;40.80
10233;DHT22;5161;48.174;11.756;2023-06-14T16:23:42;24.70;42.10
10233;DHT22;5161;48.174;11.756;2023-06-14T16:26:10;24.60;41.50
10233;DHT22;5161;48.174;11.756;2023-06-14T16:28:36;24.70;41.90
10233;DHT22;5161;48.174;11.756;2023-06-14T16:31:01;24.70;41.90
10233;DHT22;5161;48.174;11.756;2023-06-14T16:33:27;24.70;42.00
10233;DHT22;5161;48.174;11.756;2023-06-14T16:35:52;24.80;41.50
10233;DHT22;5161;48.174;11.756;2023-06-14T16:38:18;24.80;41.40
10233;DHT22;5161;48.174;11.756;2023-06-14T16:40:45;24.70;41.70